createdAt,value
2019-03-04T00:00:44.297Z,36.3
2019-03-04T00:01:34.677Z,36.3
2019-03-04T00:02:24.165Z,36.2
2019-03-04T00:03:15.343Z,36.1
2019-03-04T00:04:05.095Z,36.1
2019-03-04T00:04:54.599Z,36
2019-03-04T00:05:43.829Z,35.9
2019-03-04T00:06:34.731Z,35.9
2019-03-04T00:07:24.280Z,35.9
2019-03-04T00:08:15.106Z,35.9
2019-03-04T00:09:05.169Z,35.8
2019-03-04T00:09:55.246Z,35.8
2019-03-04T00:10:44.609Z,35.8
2019-03-04T00:11:34.601Z,35.8
2019-03-04T00:12:24.951Z,35.7
2019-03-04T00:13:14.481Z,35.7
2019-03-04T00:14:05.114Z,35.7
2019-03-04T00:14:55.879Z,35.7
2019-03-04T00:15:45.096Z,35.6
2019-03-04T00:16:35.979Z,35.6
2019-03-04T00:17:25.569Z,35.6
2019-03-04T00:18:16.144Z,35.6
2019-03-04T00:19:05.893Z,35.6
2019-03-04T00:19:55.988Z,35.5
2019-03-04T00:20:46.021Z,35.5
2019-03-04T00:21:36.520Z,35.5
2019-03-04T00:22:26.409Z,35.4
2019-03-04T00:23:15.960Z,35.5
2019-03-04T00:24:05.981Z,35.4
2019-03-04T00:24:56.625Z,35.4
2019-03-04T00:25:46.935Z,35.4
2019-03-04T00:26:36.198Z,35.4
2019-03-04T00:27:26.238Z,35.4
2019-03-04T00:28:15.974Z,35.4
2019-03-04T00:29:06.314Z,35.4
2019-03-04T00:29:57.199Z,35.3
2019-03-04T00:30:46.687Z,35.3
2019-03-04T00:31:36.493Z,35.3
2019-03-04T00:32:27.095Z,35.3
2019-03-04T00:33:16.049Z,35.3
2019-03-04T00:34:06.938Z,35.3
2019-03-04T00:34:56.457Z,35.3
2019-03-04T00:35:47.046Z,35.3
2019-03-04T00:36:36.277Z,35.2
2019-03-04T00:37:26.898Z,35.3
2019-03-04T00:38:17.253Z,35.2
2019-03-04T00:39:07.287Z,35.2
2019-03-04T00:39:57.340Z,35.2
2019-03-04T00:40:47.417Z,35.2
2019-03-04T00:41:36.962Z,35.1
2019-03-04T00:42:27.522Z,35.1
2019-03-04T00:43:17.326Z,35.1
2019-03-04T00:44:07.357Z,35.1
2019-03-04T00:44:57.757Z,35.1
2019-03-04T00:45:47.525Z,35.1
2019-03-04T00:46:37.546Z,35.1
2019-03-04T00:47:27.887Z,35.1
2019-03-04T00:48:17.974Z,35.1
2019-03-04T00:49:08.014Z,35
2019-03-04T00:49:59.590Z,35
2019-03-04T00:50:48.104Z,35
2019-03-04T00:51:38.184Z,35
2019-03-04T00:52:28.248Z,35
2019-03-04T00:53:18.886Z,35
2019-03-04T00:54:08.141Z,34.9
2019-03-04T00:54:58.416Z,34.9
2019-03-04T00:55:48.734Z,34.9
2019-03-04T00:56:38.531Z,34.9
2019-03-04T00:57:28.590Z,34.9
2019-03-04T00:58:18.358Z,34.9
2019-03-04T00:59:08.681Z,34.9
2019-03-04T00:59:58.481Z,34.9
2019-03-04T01:00:48.827Z,34.9
2019-03-04T01:01:38.327Z,34.9
2019-03-04T01:02:28.363Z,34.9
2019-03-04T01:03:18.505Z,34.8
2019-03-04T01:04:09.048Z,34.8
2019-03-04T01:04:58.288Z,34.8
2019-03-04T01:05:49.168Z,34.8
2019-03-04T01:06:39.510Z,34.8
2019-03-04T01:07:28.458Z,34.8
2019-03-04T01:08:19.070Z,34.8
2019-03-04T01:09:09.123Z,34.8
2019-03-04T01:09:58.972Z,34.8
2019-03-04T01:10:49.293Z,34.8
2019-03-04T01:11:40.198Z,34.7
2019-03-04T01:12:30.231Z,34.7
2019-03-04T01:13:19.427Z,34.7
2019-03-04T01:14:09.215Z,34.7
2019-03-04T01:15:00.512Z,34.7
2019-03-04T01:15:49.107Z,34.6
2019-03-04T01:16:40.206Z,34.6
2019-03-04T01:17:29.713Z,34.7
2019-03-04T01:18:20.073Z,34.6
2019-03-04T01:19:10.102Z,34.6
2019-03-04T01:20:00.248Z,34.6
2019-03-04T01:20:50.485Z,34.6
2019-03-04T01:21:40.292Z,34.6
2019-03-04T01:22:30.933Z,34.6
2019-03-04T01:23:20.411Z,34.6
2019-03-04T01:24:09.944Z,34.5
2019-03-04T01:25:00.298Z,34.5
2019-03-04T01:25:50.901Z,34.6
2019-03-04T01:26:41.182Z,34.4
2019-03-04T01:27:30.692Z,34.5
2019-03-04T01:28:20.474Z,34.4
2019-03-04T01:29:10.872Z,34.4
2019-03-04T01:30:01.289Z,34.4
2019-03-04T01:30:50.929Z,34.4
2019-03-04T01:31:40.744Z,34.4
2019-03-04T01:32:30.769Z,34.4
2019-03-04T01:33:21.105Z,34.4
2019-03-04T01:34:11.467Z,34.4
2019-03-04T01:35:01.307Z,34.4
2019-03-04T01:35:51.823Z,34.4
2019-03-04T01:36:41.051Z,34.4
2019-03-04T01:37:30.841Z,34.4
2019-03-04T01:38:21.466Z,34.4
2019-03-04T01:39:11.789Z,34.3
2019-03-04T01:40:01.007Z,34.3
2019-03-04T01:40:52.199Z,34.3
2019-03-04T01:41:41.731Z,34.3
2019-03-04T01:42:31.761Z,34.3
2019-03-04T01:43:21.565Z,34.3
2019-03-04T01:44:11.895Z,34.3
2019-03-04T01:45:01.297Z,34.3
2019-03-04T01:45:52.253Z,34.3
2019-03-04T01:46:42.327Z,34.3
2019-03-04T01:47:32.366Z,34.3
2019-03-04T01:48:22.513Z,34.3
2019-03-04T01:49:11.654Z,34.3
2019-03-04T01:50:02.079Z,34.2
2019-03-04T01:50:51.781Z,34.2
2019-03-04T01:51:42.676Z,34.2
2019-03-04T01:52:32.523Z,34.2
2019-03-04T01:53:22.851Z,34.2
2019-03-04T01:54:12.026Z,34.1
2019-03-04T01:55:02.719Z,34.1
2019-03-04T01:55:52.940Z,34.1
2019-03-04T01:56:43.060Z,34.1
2019-03-04T01:57:32.522Z,34.2
2019-03-04T01:58:23.180Z,34.1
2019-03-04T01:59:12.625Z,34.1
2019-03-04T02:00:01.970Z,34.1
2019-03-04T02:00:53.025Z,34.1
2019-03-04T02:01:42.884Z,34.1
2019-03-04T02:02:33.753Z,34.1
2019-03-04T02:03:22.995Z,34.1
2019-03-04T02:04:12.164Z,34.1
2019-03-04T02:05:03.912Z,34.1
2019-03-04T02:05:53.120Z,34.1
2019-03-04T02:06:43.180Z,34.1
2019-03-04T02:07:33.507Z,34.1
2019-03-04T02:08:23.587Z,34.1
2019-03-04T02:09:13.375Z,34.1
2019-03-04T02:10:03.394Z,34.1
2019-03-04T02:10:53.740Z,34
2019-03-04T02:11:44.060Z,34
2019-03-04T02:12:34.417Z,34
2019-03-04T02:13:23.923Z,34
2019-03-04T02:14:14.047Z,33.9
2019-03-04T02:15:04.705Z,34
2019-03-04T02:15:53.881Z,33.9
2019-03-04T02:16:44.154Z,34
2019-03-04T02:17:33.123Z,33.9
2019-03-04T02:18:24.561Z,33.9
2019-03-04T02:19:14.359Z,33.9
2019-03-04T02:20:04.032Z,33.9
2019-03-04T02:20:54.739Z,33.9
2019-03-04T02:21:44.211Z,33.9
2019-03-04T02:22:34.563Z,33.9
2019-03-04T02:23:24.156Z,33.9
2019-03-04T02:24:13.618Z,33.9
2019-03-04T02:25:04.801Z,33.9
2019-03-04T02:25:54.059Z,33.9
2019-03-04T02:26:44.362Z,33.9
2019-03-04T02:27:34.478Z,33.9
2019-03-04T02:28:23.863Z,33.9
2019-03-04T02:29:14.771Z,33.9
2019-03-04T02:30:05.054Z,33.8
2019-03-04T02:30:55.524Z,33.8
2019-03-04T02:31:45.554Z,33.8
2019-03-04T02:32:35.045Z,33.8
2019-03-04T02:33:24.639Z,33.8
2019-03-04T02:34:15.849Z,33.8
2019-03-04T02:35:05.426Z,33.8
2019-03-04T02:35:54.469Z,33.8
2019-03-04T02:36:45.961Z,33.8
2019-03-04T02:37:35.738Z,33.8
2019-03-04T02:38:25.728Z,33.8
2019-03-04T02:39:15.277Z,33.8
2019-03-04T02:40:05.876Z,33.8
2019-03-04T02:40:55.636Z,33.8
2019-03-04T02:41:46.545Z,33.8
2019-03-04T02:42:36.560Z,33.8
2019-03-04T02:43:26.376Z,33.8
2019-03-04T02:44:16.155Z,33.8
2019-03-04T02:45:06.511Z,33.8
2019-03-04T02:45:56.029Z,33.8
2019-03-04T02:46:46.944Z,33.8
2019-03-04T02:47:36.676Z,33.8
2019-03-04T02:48:27.095Z,33.7
2019-03-04T02:49:16.835Z,33.7
2019-03-04T02:50:06.820Z,33.7
2019-03-04T02:50:56.350Z,33.7
2019-03-04T02:51:46.400Z,33.6
2019-03-04T02:52:36.834Z,33.6
2019-03-04T02:53:26.869Z,33.6
2019-03-04T02:54:16.353Z,33.6
2019-03-04T02:55:06.654Z,33.6
2019-03-04T02:55:56.685Z,33.6
2019-03-04T02:56:47.592Z,33.6
2019-03-04T02:57:37.070Z,33.6
2019-03-04T02:58:26.985Z,33.6
2019-03-04T02:59:17.240Z,33.6
2019-03-04T03:00:06.564Z,33.6
2019-03-04T03:00:57.894Z,33.5
2019-03-04T03:01:47.135Z,33.5
2019-03-04T03:02:36.599Z,33.6
2019-03-04T03:03:27.529Z,33.6
2019-03-04T03:04:17.572Z,33.6
2019-03-04T06:05:48.887Z,32.1
2019-03-04T06:06:39.774Z,32.1
2019-03-04T06:07:29.897Z,32.1
2019-03-04T06:08:19.622Z,32.1
2019-03-04T06:09:09.124Z,32.1
2019-03-04T06:09:59.182Z,32.1
2019-03-04T06:10:49.006Z,32.1
2019-03-04T06:11:39.554Z,32.1
2019-03-04T06:12:29.053Z,32.1
2019-03-04T06:13:19.164Z,32.1
2019-03-04T06:14:10.034Z,32.1
2019-03-04T06:15:00.361Z,32.1
2019-03-04T06:15:49.904Z,32
2019-03-04T06:16:50.097Z,32.1
2019-03-04T06:17:29.431Z,32.1
2019-03-04T06:18:20.077Z,32.1
2019-03-04T06:19:10.356Z,32.1
2019-03-04T06:19:59.966Z,32
2019-03-04T06:20:50.212Z,32
2019-03-04T06:21:40.297Z,32
2019-03-04T06:22:30.313Z,32
2019-03-04T06:23:20.649Z,32
2019-03-04T06:24:10.727Z,32
2019-03-04T06:25:00.301Z,32
2019-03-04T06:25:51.346Z,31.9
2019-03-04T06:26:40.939Z,31.9
2019-03-04T06:27:30.693Z,32
2019-03-04T06:28:20.195Z,32
2019-03-04T06:29:10.798Z,32
2019-03-04T06:30:00.032Z,31.9
2019-03-04T06:30:53.181Z,31.9
2019-03-04T06:31:40.753Z,31.9
2019-03-04T06:32:31.597Z,31.9
2019-03-04T06:33:21.376Z,31.9
2019-03-04T06:34:10.378Z,31.9
2019-03-04T06:35:01.478Z,31.9
2019-03-04T06:35:50.994Z,31.9
2019-03-04T06:36:40.843Z,31.9
2019-03-04T06:37:30.905Z,31.9
2019-03-04T06:38:21.248Z,31.9
2019-03-04T06:39:11.018Z,31.9
2019-03-04T06:40:01.078Z,31.9
2019-03-04T06:40:51.128Z,31.9
2019-03-04T06:41:41.467Z,31.9
2019-03-04T06:42:31.028Z,31.9
2019-03-04T06:43:21.012Z,31.8
2019-03-04T06:44:12.110Z,31.8
2019-03-04T06:45:01.959Z,31.9
2019-03-04T06:45:51.699Z,31.9
2019-03-04T06:46:42.372Z,31.9
2019-03-04T06:47:32.350Z,31.9
2019-03-04T06:48:21.584Z,31.9
2019-03-04T06:49:12.232Z,31.9
2019-03-04T06:50:02.514Z,31.9
2019-03-04T06:50:52.965Z,31.9
2019-03-04T06:51:42.087Z,31.9
2019-03-04T06:52:32.463Z,31.9
2019-03-04T06:53:22.824Z,31.9
2019-03-04T06:54:12.259Z,31.9
2019-03-04T06:55:02.470Z,31.8
2019-03-04T06:55:52.649Z,31.9
2019-03-04T06:56:42.180Z,31.9
2019-03-04T06:57:34.574Z,34.7
2019-03-04T06:58:23.134Z,41.9
2019-03-04T06:59:12.604Z,41.8
2019-03-04T07:00:02.932Z,44.5
2019-03-04T07:00:53.326Z,47.5
2019-03-04T07:01:43.110Z,48.9
2019-03-04T07:02:33.661Z,49.3
2019-03-04T07:03:22.917Z,49.3
2019-03-04T07:05:49.126Z,48.4
2019-03-04T07:06:38.942Z,47.8
2019-03-04T07:07:28.961Z,47.4
2019-03-04T07:08:19.296Z,46.9
2019-03-04T07:09:09.380Z,46.4
2019-03-04T07:09:59.408Z,46
2019-03-04T07:10:48.638Z,45.6
2019-03-04T07:11:39.870Z,45.2
2019-03-04T07:12:29.853Z,44.8
2019-03-04T07:13:19.411Z,44.4
2019-03-04T07:14:09.721Z,44.1
2019-03-04T07:14:59.456Z,43.8
2019-03-04T07:15:49.280Z,43.4
2019-03-04T07:16:39.892Z,43.1
2019-03-04T07:17:29.938Z,42.9
2019-03-04T07:18:19.768Z,42.6
2019-03-04T07:19:09.535Z,44.1
2019-03-04T07:20:00.826Z,46.8
2019-03-04T07:20:50.192Z,46.7
2019-03-04T07:21:40.018Z,48.8
2019-03-04T07:22:30.282Z,50.6
2019-03-04T07:23:20.613Z,51.4
2019-03-04T07:24:10.775Z,51.4
2019-03-04T07:24:59.630Z,50.9
2019-03-04T07:25:50.222Z,50.6
2019-03-04T07:26:40.349Z,50.7
2019-03-04T07:27:30.136Z,50.9
2019-03-04T07:28:21.245Z,51.1
2019-03-04T07:29:10.753Z,51.4
2019-03-04T07:30:00.519Z,51.8
2019-03-04T07:31:40.905Z,52
2019-03-04T07:32:30.979Z,52.1
2019-03-04T07:33:21.429Z,52.2
2019-03-04T07:34:10.535Z,52.3
2019-03-04T07:35:51.482Z,52.5
2019-03-04T07:36:41.551Z,52.6
2019-03-04T07:37:31.594Z,52.8
2019-03-04T07:38:21.347Z,52.9
2019-03-04T07:39:11.721Z,53
2019-03-04T07:40:01.798Z,53.1
2019-03-04T07:40:51.546Z,53.2
2019-03-04T07:41:41.356Z,53.3
2019-03-04T07:42:33.761Z,53.4
2019-03-04T07:43:21.444Z,53.5
2019-03-04T07:44:11.518Z,53.6
2019-03-04T07:45:02.303Z,53.7
2019-03-04T07:45:52.474Z,53.8
2019-03-04T07:46:42.226Z,53.9
2019-03-04T07:47:31.738Z,54.1
2019-03-04T07:48:21.268Z,54.1
2019-03-04T07:49:12.128Z,54.3
2019-03-04T07:50:01.553Z,54.3
2019-03-04T07:50:51.429Z,54.4
2019-03-04T07:51:42.318Z,54.5
2019-03-04T07:52:31.826Z,54.6
2019-03-04T07:53:24.168Z,54.7
2019-03-04T07:54:12.210Z,54.8
2019-03-04T07:55:02.271Z,54.9
2019-03-04T07:55:53.153Z,54.9
2019-03-04T07:56:43.231Z,55
2019-03-04T07:57:33.013Z,55.1
2019-03-04T07:58:22.888Z,55.2
2019-03-04T07:59:13.116Z,55.3
2019-03-04T08:00:03.403Z,55.4
2019-03-04T08:00:52.557Z,55.4
2019-03-04T08:01:42.738Z,55.5
2019-03-04T08:02:32.801Z,55.6
2019-03-04T08:03:23.145Z,55.6
2019-03-04T08:04:12.361Z,55.8
2019-03-04T08:05:03.012Z,55.8
2019-03-04T08:05:52.361Z,55.9
2019-03-04T08:06:42.905Z,55.9
2019-03-04T08:07:33.162Z,56
2019-03-04T08:08:23.750Z,56.1
2019-03-04T08:09:13.532Z,56.1
2019-03-04T08:10:02.833Z,56.2
2019-03-04T08:10:53.384Z,56.3
2019-03-04T08:11:43.442Z,56.3
2019-03-04T08:12:34.325Z,56.4
2019-03-04T08:13:23.640Z,56.4
2019-03-04T08:14:13.873Z,56.5
2019-03-04T08:15:04.351Z,56.6
2019-03-04T08:15:53.807Z,56.6
2019-03-04T08:16:44.377Z,56.8
2019-03-04T08:17:34.184Z,56.8
2019-03-04T08:18:23.162Z,56.9
2019-03-04T08:19:14.517Z,56.9
2019-03-04T08:20:04.064Z,57.1
2019-03-04T08:20:54.695Z,57.1
2019-03-04T08:21:44.209Z,57.2
2019-03-04T08:22:34.528Z,57.3
2019-03-04T08:23:24.272Z,57.3
2019-03-04T08:24:14.069Z,57.4
2019-03-04T08:25:04.939Z,57.5
2019-03-04T08:25:55.005Z,57.6
2019-03-04T08:26:43.969Z,57.6
2019-03-04T08:27:34.806Z,57.7
2019-03-04T08:29:15.220Z,57.8
2019-03-04T08:30:05.051Z,57.9
2019-03-04T08:30:55.377Z,58
2019-03-04T08:31:45.131Z,58.1
2019-03-04T08:32:35.519Z,58.1
2019-03-04T08:33:25.442Z,58.2
2019-03-04T08:34:15.612Z,58.3
2019-03-04T08:35:05.076Z,58.3
2019-03-04T08:35:55.719Z,58.4
2019-03-04T08:36:45.194Z,58.4
2019-03-04T08:37:36.077Z,58.5
2019-03-04T08:39:15.388Z,58.6
2019-03-04T08:40:05.236Z,58.8
2019-03-04T08:40:56.025Z,58.8
2019-03-04T08:41:46.113Z,58.9
2019-03-04T08:42:36.153Z,58.9
2019-03-04T08:43:25.373Z,59
2019-03-04T08:44:16.264Z,59
2019-03-04T08:45:06.363Z,59.1
2019-03-04T08:45:56.381Z,59.3
2019-03-04T08:46:46.744Z,59.4
2019-03-04T08:47:36.530Z,59.4
2019-03-04T08:48:26.333Z,59.4
2019-03-04T08:49:16.078Z,59.5
2019-03-04T08:50:06.433Z,59.6
2019-03-04T08:50:56.531Z,59.6
2019-03-04T08:51:46.810Z,59.7
2019-03-04T08:52:36.060Z,59.8
2019-03-04T08:53:26.626Z,59.8
2019-03-04T08:54:16.785Z,59.9
2019-03-04T08:55:06.535Z,60
2019-03-04T08:55:57.173Z,60.1
2019-03-04T08:56:46.879Z,60.2
2019-03-04T08:57:36.168Z,60.2
2019-03-04T08:58:25.925Z,60.3
2019-03-04T08:59:17.078Z,60.4
2019-03-04T09:00:06.382Z,60.4
2019-03-04T09:00:57.430Z,60.5
2019-03-04T09:01:47.521Z,60.6
2019-03-04T09:02:36.509Z,60.7
2019-03-04T09:03:27.424Z,60.7
2019-03-04T09:04:16.909Z,60.8
2019-03-04T09:05:07.265Z,60.9
2019-03-04T09:05:56.475Z,61
2019-03-04T09:06:47.065Z,61.1
2019-03-04T09:07:37.930Z,61.1
2019-03-04T09:08:27.789Z,61.2
2019-03-04T09:09:18.018Z,61.3
2019-03-04T09:10:07.807Z,61.4
2019-03-04T09:10:57.122Z,61.4
2019-03-04T09:11:47.999Z,61.4
2019-03-04T09:12:39.294Z,61.6
2019-03-04T09:13:28.112Z,61.6
2019-03-04T09:14:17.611Z,61.7
2019-03-04T09:15:07.697Z,61.8
2019-03-04T09:15:57.485Z,61.8
2019-03-04T09:16:47.787Z,61.9
2019-03-04T09:17:37.284Z,62
2019-03-04T09:18:27.929Z,62.1
2019-03-04T09:19:18.273Z,62.1
2019-03-04T09:20:08.299Z,62.2
2019-03-04T09:20:58.126Z,62.3
2019-03-04T09:21:48.406Z,62.3
2019-03-04T09:22:38.496Z,62.4
2019-03-04T09:23:28.531Z,62.4
2019-03-04T09:24:18.638Z,62.6
2019-03-04T09:25:08.134Z,62.6
2019-03-04T09:25:58.441Z,62.6
2019-03-04T09:26:48.501Z,62.8
2019-03-04T09:27:39.309Z,62.8
2019-03-04T09:28:28.632Z,62.9
2019-03-04T09:29:18.663Z,63
2019-03-04T09:30:08.786Z,63.1
2019-03-04T09:30:58.778Z,63.1
2019-03-04T09:31:49.311Z,63.2
2019-03-04T09:32:38.866Z,63.3
2019-03-04T09:33:29.191Z,63.3
2019-03-04T09:34:19.228Z,63.4
2019-03-04T09:35:09.303Z,63.4
2019-03-04T09:35:59.630Z,63.5
2019-03-04T09:36:49.708Z,63.6
2019-03-04T09:37:39.458Z,63.6
2019-03-04T09:38:29.495Z,63.7
2019-03-04T09:39:20.168Z,63.8
2019-03-04T09:40:09.954Z,63.9
2019-03-04T09:41:00.301Z,64
2019-03-04T09:41:52.473Z,64.1
2019-03-04T09:42:40.777Z,64.1
2019-03-04T09:43:30.150Z,64.3
2019-03-04T09:44:20.188Z,64.3
2019-03-04T09:45:10.324Z,64.4
2019-03-04T09:45:59.825Z,64.5
2019-03-04T09:46:50.418Z,64.6
2019-03-04T09:47:39.880Z,64.6
2019-03-04T09:48:30.757Z,64.7
2019-03-04T09:49:20.562Z,64.8
2019-03-04T09:50:10.605Z,64.8
2019-03-04T09:51:00.379Z,64.9
2019-03-04T09:51:51.320Z,65
2019-03-04T09:52:40.250Z,65.1
2019-03-04T09:53:43.669Z,65.2
2019-03-04T09:54:20.612Z,65.3
2019-03-04T09:55:11.549Z,65.3
2019-03-04T09:56:00.517Z,65.4
2019-03-04T09:56:51.229Z,65.5
2019-03-04T09:57:41.150Z,65.6
2019-03-04T09:58:30.968Z,65.6
2019-03-04T09:59:21.240Z,65.6
2019-03-04T10:00:11.857Z,65.7
2019-03-04T10:01:01.332Z,65.8
2019-03-04T10:01:51.704Z,65.9
2019-03-04T10:02:41.799Z,65.9
2019-03-04T10:03:31.797Z,66
2019-03-04T10:04:21.311Z,66.1
2019-03-04T10:06:49.246Z,66.3
2019-03-04T10:07:39.074Z,66.3
2019-03-04T10:08:38.126Z,66.4
2019-03-04T10:09:19.141Z,66.5
2019-03-04T10:10:09.282Z,66.5
2019-03-04T10:10:58.439Z,66.6
2019-03-04T10:11:48.518Z,66.7
2019-03-04T10:12:39.947Z,66.8
2019-03-04T10:13:29.711Z,66.8
2019-03-04T10:14:18.999Z,66.8
2019-03-04T10:15:13.448Z,66.9
2019-03-04T10:15:59.061Z,67
2019-03-04T10:16:50.261Z,67
2019-03-04T10:17:38.906Z,67.1
2019-03-04T10:18:29.801Z,67.2
2019-03-04T10:19:19.283Z,67.2
2019-03-04T10:20:09.636Z,67.3
2019-03-04T10:20:59.729Z,67.3
2019-03-04T10:21:51.905Z,67.4
2019-03-04T10:22:40.131Z,67.5
2019-03-04T10:23:29.581Z,67.5
2019-03-04T10:24:19.653Z,67.6
2019-03-04T10:25:09.978Z,67.6
2019-03-04T10:25:59.743Z,67.7
2019-03-04T10:26:50.654Z,67.8
2019-03-04T10:27:39.858Z,67.9
2019-03-04T10:28:30.223Z,67.9
2019-03-04T10:29:20.259Z,68
2019-03-04T10:30:10.616Z,68
2019-03-04T10:31:00.691Z,68.1
2019-03-04T10:31:50.997Z,68.1
2019-03-04T10:32:40.493Z,68.2
2019-03-04T10:33:31.153Z,68.2
2019-03-04T10:34:20.898Z,68.3
2019-03-04T10:35:11.246Z,68.3
2019-03-04T10:36:00.189Z,68.4
2019-03-04T10:36:51.056Z,68.4
2019-03-04T10:37:41.392Z,68.4
2019-03-04T10:38:30.340Z,68.4
2019-03-04T10:39:27.454Z,68.4
2019-03-04T10:40:10.484Z,68.6
2019-03-04T10:41:03.585Z,68.6
2019-03-04T10:41:51.165Z,68.6
2019-03-04T10:42:41.767Z,68.7
2019-03-04T10:43:31.264Z,68.8
2019-03-04T10:44:22.152Z,68.8
2019-03-04T10:45:11.377Z,68.9
2019-03-04T10:46:01.434Z,68.9
2019-03-04T10:46:51.785Z,68.9
2019-03-04T10:47:42.362Z,69
2019-03-04T10:48:32.212Z,69.1
2019-03-04T10:49:22.484Z,69.1
2019-03-04T10:50:11.995Z,69.1
2019-03-04T10:51:02.050Z,69.2
2019-03-04T10:51:51.627Z,69.2
2019-03-04T10:52:42.742Z,69.3
2019-03-04T10:53:32.309Z,69.3
2019-03-04T10:54:22.844Z,69.4
2019-03-04T10:55:12.361Z,69.4
2019-03-04T10:56:02.703Z,69.4
2019-03-04T10:56:51.714Z,69.5
2019-03-04T10:57:42.806Z,69.6
2019-03-04T10:58:32.036Z,69.7
2019-03-04T10:59:23.166Z,69.8
2019-03-04T11:00:13.050Z,69.8
2019-03-04T11:01:03.094Z,69.9
2019-03-04T11:01:55.011Z,69.9
2019-03-04T11:02:42.300Z,69.9
2019-03-04T11:03:33.203Z,69.9
2019-03-04T11:04:22.499Z,70
2019-03-04T11:05:12.541Z,70
2019-03-04T11:06:02.831Z,70
2019-03-04T11:06:55.380Z,70.1
2019-03-04T11:07:42.758Z,70.1
2019-03-04T11:08:33.331Z,70.1
2019-03-04T11:09:23.398Z,70.2
2019-03-04T11:10:12.631Z,70.2
2019-03-04T11:11:03.478Z,70.3
2019-03-04T11:11:54.048Z,70.3
2019-03-04T11:12:43.850Z,70.3
2019-03-04T11:13:33.911Z,70.3
2019-03-04T11:14:23.417Z,70.3
2019-03-04T11:15:13.452Z,70.3
2019-03-04T11:16:03.810Z,70.3
2019-03-04T11:16:54.426Z,70.4
2019-03-04T11:17:43.902Z,70.4
2019-03-04T11:18:33.725Z,70.6
2019-03-04T11:19:24.407Z,70.6
2019-03-04T11:20:13.539Z,70.6
2019-03-04T11:21:04.156Z,70.7
2019-03-04T11:21:54.283Z,70.7
2019-03-04T11:22:43.987Z,70.8
2019-03-04T11:23:34.895Z,70.8
2019-03-04T11:24:24.955Z,70.8
2019-03-04T11:25:14.190Z,70.8
2019-03-04T11:26:04.537Z,70.9
2019-03-04T11:26:55.123Z,70.9
2019-03-04T11:27:44.345Z,70.9
2019-03-04T11:28:34.950Z,71
2019-03-04T11:29:25.068Z,71
2019-03-04T11:30:15.346Z,71.1
2019-03-04T11:31:04.854Z,71.1
2019-03-04T11:31:54.924Z,71.1
2019-03-04T11:32:45.006Z,71.1
2019-03-04T11:33:35.282Z,71.2
2019-03-04T11:34:24.854Z,71.2
2019-03-04T11:35:14.594Z,71.3
2019-03-04T11:36:05.853Z,71.3
2019-03-04T11:36:54.706Z,71.3
2019-03-04T11:37:45.609Z,71.3
2019-03-04T11:38:35.086Z,71.3
2019-03-04T11:39:25.774Z,71.3
2019-03-04T11:40:16.019Z,71.4
2019-03-04T11:41:05.829Z,71.4
2019-03-04T11:41:55.323Z,71.4
2019-03-04T11:42:46.219Z,71.4
2019-03-04T11:43:35.179Z,71.5
2019-03-04T11:44:26.071Z,71.5
2019-03-04T11:45:15.919Z,71.5
2019-03-04T11:46:05.903Z,71.6
2019-03-04T11:46:55.989Z,71.6
2019-03-04T11:47:46.278Z,71.6
2019-03-04T11:48:36.409Z,71.6
2019-03-04T11:49:25.906Z,71.6
2019-03-04T11:50:15.726Z,71.6
2019-03-04T11:51:06.279Z,71.6
2019-03-04T11:51:56.068Z,71.6
2019-03-04T11:52:46.653Z,71.7
2019-03-04T11:53:36.416Z,71.7
2019-03-04T11:54:26.548Z,71.8
2019-03-04T11:55:16.623Z,71.8
2019-03-04T11:56:06.903Z,71.8
2019-03-04T11:56:56.668Z,71.8
2019-03-04T11:57:47.003Z,71.8
2019-03-04T11:58:37.059Z,71.8
2019-03-04T11:59:26.910Z,71.7
2019-03-04T12:00:16.629Z,71.3
2019-03-04T12:01:06.775Z,70.6
2019-03-04T12:01:57.340Z,69.8
2019-03-04T12:02:46.800Z,69.6
2019-03-04T12:03:37.412Z,70.3
2019-03-04T12:04:27.493Z,70.8
2019-03-04T12:06:48.678Z,71.6
2019-03-04T12:07:38.125Z,70.9
2019-03-04T12:08:29.002Z,70.1
2019-03-04T12:09:19.070Z,69.5
2019-03-04T12:10:09.438Z,70.3
2019-03-04T12:10:59.424Z,70.9
2019-03-04T12:11:49.204Z,71.6
2019-03-04T12:12:39.285Z,71.8
2019-03-04T12:13:29.357Z,71.5
2019-03-04T12:14:19.647Z,70.8
2019-03-04T12:15:08.926Z,69.9
2019-03-04T12:15:59.796Z,69.7
2019-03-04T12:16:49.304Z,70.5
2019-03-04T12:17:39.137Z,71.1
2019-03-04T12:18:29.777Z,71.8
2019-03-04T12:19:19.504Z,71.8
2019-03-04T12:20:10.161Z,71.3
2019-03-04T12:21:00.121Z,70.6
2019-03-04T12:21:50.206Z,69.6
2019-03-04T12:22:39.957Z,69.9
2019-03-04T12:23:30.342Z,70.7
2019-03-04T12:24:20.448Z,71.3
2019-03-04T12:25:10.206Z,71.8
2019-03-04T12:25:59.427Z,71.7
2019-03-04T12:26:50.542Z,71.1
2019-03-04T12:27:39.846Z,70.4
2019-03-04T12:28:30.382Z,69.5
2019-03-04T12:29:20.732Z,70.1
2019-03-04T12:30:09.679Z,70.9
2019-03-04T12:31:01.129Z,71.4
2019-03-04T12:31:50.428Z,71.8
2019-03-04T12:32:40.962Z,71.6
2019-03-04T12:33:31.276Z,71
2019-03-04T12:34:30.535Z,70.2
2019-03-04T12:35:10.305Z,69.6
2019-03-04T12:36:00.931Z,70.3
2019-03-04T12:36:50.983Z,70.9
2019-03-04T12:37:41.601Z,71.4
2019-03-04T12:38:31.713Z,71.8
2019-03-04T12:39:21.143Z,71.6
2019-03-04T12:40:11.636Z,70.9
2019-03-04T12:41:01.808Z,70.1
2019-03-04T12:41:54.082Z,69.6
2019-03-04T12:42:41.976Z,70.5
2019-03-04T12:43:31.455Z,70.9
2019-03-04T12:44:20.705Z,71.4
2019-03-04T12:45:11.815Z,71.8
2019-03-04T12:46:00.768Z,71.4
2019-03-04T12:46:51.725Z,70.8
2019-03-04T12:47:42.021Z,70
2019-03-04T12:48:31.797Z,69.6
2019-03-04T12:49:22.458Z,70.5
2019-03-04T12:50:11.115Z,70.8
2019-03-04T12:51:02.036Z,71.3
2019-03-04T12:51:51.172Z,71.7
2019-03-04T12:52:42.134Z,71.5
2019-03-04T12:53:42.745Z,70.9
2019-03-04T12:54:22.187Z,70
2019-03-04T12:55:12.068Z,69.6
2019-03-04T12:56:02.040Z,70.3
2019-03-04T12:56:52.155Z,70.6
2019-03-04T12:57:42.427Z,71.1
2019-03-04T12:58:32.226Z,71.4
2019-03-04T12:59:21.227Z,71.6
2019-03-04T13:00:11.665Z,71.6
2019-03-04T13:01:02.402Z,71.4
2019-03-04T13:01:52.704Z,71.3
2019-03-04T13:02:42.784Z,71.3
2019-03-04T13:03:32.571Z,71.2
2019-03-04T13:04:22.902Z,71.2
2019-03-04T13:05:12.205Z,71.2
2019-03-04T13:06:02.477Z,71.3
2019-03-04T13:06:53.080Z,71.2
2019-03-04T13:07:43.702Z,71.2
2019-03-04T13:08:33.745Z,71.1
2019-03-04T13:09:22.464Z,71.1
2019-03-04T13:10:13.046Z,71.1
2019-03-04T13:11:03.649Z,71.1
2019-03-04T13:11:53.181Z,71
2019-03-04T13:12:43.816Z,71
2019-03-04T13:13:33.062Z,71
2019-03-04T13:14:23.896Z,70.9
2019-03-04T13:15:13.418Z,70.8
2019-03-04T13:16:02.962Z,70.8
2019-03-04T13:16:54.376Z,70.8
2019-03-04T13:17:43.866Z,70.8
2019-03-04T13:18:34.519Z,70.7
2019-03-04T13:19:23.774Z,70.7
2019-03-04T13:20:13.743Z,70.6
2019-03-04T13:21:04.368Z,70.6
2019-03-04T13:21:53.616Z,70.6
2019-03-04T13:22:44.533Z,70.5
2019-03-04T13:23:33.981Z,70.5
2019-03-04T13:24:24.976Z,70.4
2019-03-04T13:25:14.399Z,70.3
2019-03-04T13:26:04.446Z,70.3
2019-03-04T13:26:54.484Z,70.2
2019-03-04T13:27:43.486Z,70.1
2019-03-04T13:28:34.324Z,70
2019-03-04T13:29:24.948Z,69.9
2019-03-04T13:30:14.753Z,69.9
2019-03-04T13:31:19.731Z,69.8
2019-03-04T13:31:54.933Z,69.8
2019-03-04T13:32:45.197Z,69.8
2019-03-04T13:33:35.565Z,69.7
2019-03-04T13:34:24.341Z,69.6
2019-03-04T13:35:26.128Z,69.5
2019-03-04T13:36:04.302Z,69.4
2019-03-04T13:36:55.340Z,69.4
2019-03-04T13:37:45.095Z,69.3
2019-03-04T13:38:35.372Z,69.3
2019-03-04T13:39:25.465Z,69.2
2019-03-04T13:40:14.660Z,69.1
2019-03-04T13:41:05.014Z,69
2019-03-04T13:41:55.390Z,68.9
2019-03-04T13:42:45.427Z,68.9
2019-03-04T13:43:34.927Z,68.8
2019-03-04T13:44:25.858Z,68.8
2019-03-04T13:45:14.865Z,68.7
2019-03-04T13:46:05.659Z,68.6
2019-03-04T13:46:54.904Z,68.5
2019-03-04T13:47:46.319Z,68.4
2019-03-04T13:48:36.092Z,68.3
2019-03-04T13:49:25.047Z,68.2
2019-03-04T13:50:16.128Z,68.2
2019-03-04T13:51:06.767Z,68.1
2019-03-04T13:51:55.512Z,68.1
2019-03-04T13:52:46.851Z,68
2019-03-04T13:53:36.391Z,67.9
2019-03-04T13:54:26.434Z,67.8
2019-03-04T13:55:16.497Z,67.8
2019-03-04T13:56:05.534Z,67.6
2019-03-04T13:56:56.088Z,67.6
2019-03-04T13:57:46.117Z,67.5
2019-03-04T13:58:36.728Z,67.4
2019-03-04T13:59:27.397Z,67.3
2019-03-04T14:00:16.675Z,67.2
2019-03-04T14:01:06.888Z,67.1
2019-03-04T14:01:57.278Z,67
2019-03-04T14:02:47.041Z,66.9
2019-03-04T14:03:36.258Z,66.8
2019-03-04T14:04:27.481Z,66.8
2019-03-04T14:05:17.546Z,66.7
2019-03-04T14:08:05.316Z,66.4
2019-03-04T16:07:48.689Z,40.5
2019-03-04T16:08:38.732Z,40.4
2019-03-04T16:09:28.610Z,40.3
2019-03-04T16:10:17.567Z,40.3
2019-03-04T16:11:08.351Z,40.2
2019-03-04T16:11:58.677Z,40.1
2019-03-04T16:12:49.001Z,40.1
2019-03-04T16:13:38.609Z,40
2019-03-04T16:14:29.457Z,39.9
2019-03-04T16:15:18.706Z,39.9
2019-03-04T16:16:09.058Z,39.8
2019-03-04T16:16:59.594Z,39.8
2019-03-04T16:17:48.359Z,39.6
2019-03-04T16:18:39.791Z,39.6
2019-03-04T16:19:29.785Z,39.5